createdAt,value
2023-02-22T00:02:11.165Z,101602.13
2023-02-22T00:04:41.783Z,101603.81
2023-02-22T00:07:09.118Z,101596.81
2023-02-22T00:09:36.383Z,101595.03
2023-02-22T00:12:03.791Z,101592.34
2023-02-22T00:14:31.038Z,101591.53
2023-02-22T00:16:59.984Z,101590.66
2023-02-22T00:19:30.932Z,101585.38
2023-02-22T00:21:58.449Z,101586.19
2023-02-22T00:24:27.016Z,101584.47
2023-02-22T00:26:55.914Z,101572.19
2023-02-22T00:29:24.756Z,101580.88
2023-02-22T00:31:52.316Z,101580.00
2023-02-22T00:34:19.691Z,101574.75
2023-02-22T00:36:50.872Z,101572.09
2023-02-22T00:39:18.331Z,101571.22
2023-02-22T00:41:45.858Z,101572.09
2023-02-22T00:44:13.175Z,101564.22
2023-02-22T00:46:40.507Z,101563.28
2023-02-22T00:49:07.927Z,101567.69
2023-02-22T00:51:35.317Z,101571.13
2023-02-22T00:54:02.806Z,101559.75
2023-02-22T00:56:30.332Z,101561.50
2023-02-22T00:58:57.633Z,101553.63
2023-02-22T01:01:25.006Z,101555.34
2023-02-22T01:03:52.407Z,101553.56
2023-02-22T01:06:20.569Z,101556.19
2023-02-22T01:08:49.024Z,101550.94
2023-02-22T01:11:18.404Z,101554.44
2023-02-22T01:13:45.903Z,101549.19
2023-02-22T01:16:13.317Z,101551.81
2023-02-22T01:18:40.660Z,101551.81
2023-02-22T01:21:08.618Z,101551.81
2023-02-22T01:23:36.051Z,101548.31
2023-02-22T01:26:06.175Z,101538.69
2023-02-22T01:28:35.290Z,101541.31
2023-02-22T01:31:03.428Z,101547.47
2023-02-22T01:33:31.953Z,101543.94
2023-02-22T01:36:00.246Z,101538.69
2023-02-22T01:38:28.247Z,101536.94
2023-02-22T01:40:55.693Z,101530.81
2023-02-22T01:43:29.678Z,101515.91
2023-02-22T01:46:00.836Z,101519.38
2023-02-22T01:48:41.135Z,101510.66
2023-02-22T01:51:19.680Z,101517.66
2023-02-22T01:53:56.068Z,101519.41
2023-02-22T01:56:26.663Z,101525.53
2023-02-22T01:59:01.500Z,101521.97
2023-02-22T02:01:30.112Z,101519.38
2023-02-22T02:04:00.203Z,101515.84
2023-02-22T02:06:31.468Z,101521.09
2023-02-22T02:09:15.903Z,101513.22
2023-02-22T02:11:44.253Z,101511.47
2023-02-22T02:14:12.628Z,101514.06
2023-02-22T02:16:44.988Z,101505.25
2023-02-22T02:19:44.540Z,101507.00
2023-02-22T02:22:21.177Z,101506.09
2023-02-22T02:25:37.843Z,101503.44
2023-02-22T02:28:42.973Z,101506.00
2023-02-22T02:31:27.887Z,101510.38
2023-02-22T02:33:58.087Z,101506.84
2023-02-22T02:37:03.117Z,101498.09
2023-02-22T02:39:53.006Z,101508.56
2023-02-22T02:42:25.495Z,101498.09
2023-02-22T02:45:05.089Z,101498.09
2023-02-22T02:47:40.280Z,101498.97
2023-02-22T02:50:23.339Z,101492.84
2023-02-22T02:52:55.542Z,101487.59
2023-02-22T02:55:25.052Z,101482.34
2023-02-22T02:57:53.677Z,101483.19
2023-02-22T03:00:26.537Z,101478.78
2023-02-22T03:03:11.912Z,101477.88
2023-02-22T03:05:39.446Z,101479.63
2023-02-22T03:08:07.745Z,101470.84
2023-02-22T03:11:01.758Z,101470.88
2023-02-22T03:14:08.288Z,101460.34
2023-02-22T03:16:50.412Z,101460.28
2023-02-22T03:19:22.072Z,101463.84
2023-02-22T03:22:14.079Z,101457.72
2023-02-22T03:24:54.808Z,101456.78
2023-02-22T03:27:29.546Z,101457.66
2023-02-22T03:30:05.829Z,101449.81
2023-02-22T03:32:39.893Z,101446.28
2023-02-22T03:35:17.502Z,101450.63
2023-02-22T03:37:48.040Z,101440.13
2023-02-22T03:40:28.413Z,101436.63
2023-02-22T03:43:03.784Z,101439.25
2023-02-22T03:45:36.298Z,101439.25
2023-02-22T03:48:20.651Z,101442.75
2023-02-22T03:50:49.137Z,101447.09
2023-02-22T03:53:19.134Z,101433.09
2023-02-22T03:55:53.136Z,101426.94
2023-02-22T03:58:24.399Z,101431.28
2023-02-22T04:00:54.703Z,101440.03
2023-02-22T04:03:23.661Z,101422.56
2023-02-22T04:05:52.940Z,101421.53
2023-02-22T04:08:20.709Z,101415.41
2023-02-22T04:10:48.494Z,101423.28
2023-02-22T04:13:18.556Z,101418.00
2023-02-22T04:15:48.842Z,101420.63
2023-02-22T04:18:16.710Z,101426.75
2023-02-22T04:20:46.818Z,101423.25
2023-02-22T04:23:22.708Z,101421.50
2023-02-22T04:25:50.200Z,101421.50
2023-02-22T04:28:18.882Z,101423.28
2023-02-22T04:31:06.365Z,101406.66
2023-02-22T04:33:34.065Z,101395.28
2023-02-22T04:36:01.721Z,101390.03
2023-02-22T04:38:32.494Z,101388.28
2023-02-22T04:41:00.747Z,101390.88
2023-02-22T04:43:29.660Z,101390.84
2023-02-22T04:46:06.669Z,101398.72
2023-02-22T04:48:34.007Z,101385.59
2023-02-22T04:51:01.310Z,101386.47
2023-02-22T04:53:30.925Z,101378.59
2023-02-22T04:55:58.333Z,101380.34
2023-02-22T04:58:25.626Z,101385.59
2023-02-22T05:00:54.201Z,101386.47
2023-02-22T05:03:21.557Z,101389.06
2023-02-22T05:05:48.953Z,101377.69
2023-02-22T05:08:16.277Z,101371.56
2023-02-22T05:10:43.591Z,101373.31
2023-02-22T05:13:10.822Z,101368.91
2023-02-22T05:15:37.951Z,101377.63
2023-02-22T05:18:05.494Z,101381.09
2023-02-22T05:20:34.927Z,101369.72
2023-02-22T05:23:03.072Z,101378.44
2023-02-22T05:25:30.384Z,101375.81
2023-02-22T05:28:00.535Z,101371.44
2023-02-22T05:30:31.189Z,101373.13
2023-02-22T05:32:59.421Z,101377.47
2023-02-22T05:35:27.717Z,101367.88
2023-02-22T05:37:55.855Z,101372.25
2023-02-22T05:40:26.326Z,101371.34
2023-02-22T05:42:54.521Z,101364.34
2023-02-22T05:45:25.127Z,101374.84
2023-02-22T05:47:56.117Z,101364.31
2023-02-22T05:50:24.701Z,101364.31
2023-02-22T05:52:53.417Z,101366.91
2023-02-22T05:55:23.676Z,101370.38
2023-02-22T05:57:52.463Z,101361.63
2023-02-22T06:00:26.099Z,101359.00
2023-02-22T06:03:04.996Z,101359.88
2023-02-22T06:05:33.107Z,101354.59
2023-02-22T06:08:02.742Z,101347.56
2023-02-22T06:10:30.942Z,101347.59
2023-02-22T06:12:59.076Z,101353.69
2023-02-22T06:15:28.443Z,101347.56
2023-02-22T06:17:56.972Z,101349.31
2023-02-22T06:20:26.522Z,101359.75
2023-02-22T06:22:55.909Z,101347.50
2023-02-22T06:25:25.935Z,101357.13
2023-02-22T06:27:53.379Z,101359.75
2023-02-22T06:30:23.170Z,101351.00
2023-02-22T06:32:51.013Z,101350.09
2023-02-22T06:35:18.413Z,101354.38
2023-02-22T06:37:45.927Z,101351.75
2023-02-22T06:40:14.820Z,101344.75
2023-02-22T06:42:42.145Z,101339.50
2023-02-22T06:45:09.979Z,101349.13
2023-02-22T06:47:41.500Z,101341.25
2023-02-22T06:50:19.935Z,101339.59
2023-02-22T06:52:48.102Z,101340.47
2023-02-22T06:55:23.742Z,101341.34
2023-02-22T06:57:51.813Z,101335.22
2023-02-22T07:00:21.337Z,101334.38
2023-02-22T07:02:48.976Z,101325.63
2023-02-22T07:05:19.389Z,101324.75
2023-02-22T07:07:48.590Z,101336.16
2023-02-22T07:10:26.199Z,101328.28
2023-02-22T07:12:54.014Z,101322.16
2023-02-22T07:15:23.921Z,101322.16
2023-02-22T07:20:40.325Z,101322.25
2023-02-22T07:23:08.411Z,101327.53
2023-02-22T07:25:35.813Z,101325.81
2023-02-22T07:28:03.052Z,101324.97
2023-02-22T07:30:34.825Z,101325.84
2023-02-22T07:33:04.900Z,101323.25
2023-02-22T07:35:43.844Z,101322.47
2023-02-22T07:38:11.066Z,101319.84
2023-02-22T07:40:40.283Z,101315.56
2023-02-22T07:43:28.813Z,101312.13
2023-02-22T07:45:59.044Z,101310.47
2023-02-22T07:48:29.024Z,101309.66
2023-02-22T07:50:56.964Z,101314.97
2023-02-22T07:53:30.220Z,101313.25
2023-02-22T07:55:58.552Z,101313.22
2023-02-22T07:58:27.996Z,101314.97
2023-02-22T08:00:56.453Z,101312.38
2023-02-22T08:03:25.649Z,101316.75
2023-02-22T08:05:55.772Z,101311.50
2023-02-22T08:08:24.059Z,101305.41
2023-02-22T08:10:52.418Z,101313.34
2023-02-22T08:13:22.181Z,101308.13
2023-02-22T08:15:52.474Z,101311.72
2023-02-22T08:18:20.989Z,101302.16
2023-02-22T08:20:50.018Z,101303.09
2023-02-22T08:23:18.482Z,101302.28
2023-02-22T08:25:45.860Z,101290.97
2023-02-22T08:28:15.993Z,101296.25
2023-02-22T08:30:43.975Z,101293.66
2023-02-22T08:33:14.653Z,101291.97
2023-02-22T08:35:41.981Z,101285.78
2023-02-22T08:38:17.125Z,101292.78
2023-02-22T08:40:44.883Z,101283.22
2023-02-22T08:43:13.549Z,101285.03
2023-02-22T08:45:41.475Z,101269.34
2023-02-22T08:48:08.869Z,101271.16
2023-02-22T08:50:36.361Z,101287.84
2023-02-22T08:53:05.540Z,101282.69
2023-02-22T08:55:37.543Z,101280.09
2023-02-22T08:58:09.322Z,101281.00
2023-02-22T09:00:39.049Z,101283.72
2023-02-22T09:03:09.464Z,101288.13
2023-02-22T09:05:36.792Z,101282.94
2023-02-22T09:08:04.744Z,101282.97
2023-02-22T09:10:35.041Z,101286.56
2023-02-22T09:13:03.965Z,101279.59
2023-02-22T09:15:32.534Z,101285.75
2023-02-22T09:18:00.178Z,101284.03
2023-02-22T09:20:29.378Z,101283.22
2023-02-22T09:22:57.537Z,101283.22
2023-02-22T09:25:25.221Z,101277.19
2023-02-22T09:27:53.894Z,101274.63
2023-02-22T09:30:33.463Z,101265.03
2023-02-22T09:33:07.184Z,101262.50
2023-02-22T09:35:36.684Z,101260.81
2023-02-22T09:38:06.963Z,101257.41
2023-02-22T09:40:45.156Z,101254.81
2023-02-22T09:43:37.824Z,101251.44
2023-02-22T09:46:56.231Z,101259.44
2023-02-22T09:49:32.098Z,101256.84
2023-02-22T09:52:08.392Z,101247.19
2023-02-22T09:54:45.722Z,101249.88
2023-02-22T09:57:23.037Z,101244.75
2023-02-22T10:00:29.394Z,101249.19
2023-02-22T10:03:19.442Z,101255.38
2023-02-22T10:06:03.362Z,101244.06
2023-02-22T10:08:33.724Z,101246.81
2023-02-22T10:11:31.873Z,101244.22
2023-02-22T10:14:05.622Z,101251.31
2023-02-22T10:16:35.241Z,101239.09
2023-02-22T10:19:33.677Z,101247.00
2023-02-22T10:22:19.784Z,101235.66
2023-02-22T10:25:14.831Z,101239.22
2023-02-22T10:27:55.691Z,101233.94
2023-02-22T10:30:34.249Z,101244.47
2023-02-22T10:33:20.492Z,101249.72
2023-02-22T10:35:51.352Z,101240.09
2023-02-22T10:38:27.960Z,101236.56
2023-02-22T10:40:58.526Z,101238.34
2023-02-22T10:43:26.010Z,101248.91
2023-02-22T10:45:57.864Z,101243.59
2023-02-22T10:48:27.694Z,101244.44
2023-02-22T10:51:02.205Z,101242.66
2023-02-22T10:53:31.126Z,101235.66
2023-02-22T10:56:05.765Z,101235.63
2023-02-22T10:59:02.600Z,101237.31
2023-02-22T11:01:33.059Z,101237.34
2023-02-22T11:04:11.192Z,101229.41
2023-02-22T11:06:41.176Z,101232.91
2023-02-22T11:09:22.847Z,101227.56
2023-02-22T11:12:07.793Z,101225.78
2023-02-22T11:14:35.164Z,101223.97
2023-02-22T11:17:08.307Z,101222.19
2023-02-22T11:19:38.634Z,101223.97
2023-02-22T11:22:05.980Z,101217.88
2023-02-22T11:24:48.535Z,101213.53
2023-02-22T11:27:27.104Z,101212.75
2023-02-22T11:30:07.013Z,101204.91
2023-02-22T11:32:43.488Z,101206.78
2023-02-22T11:35:35.494Z,101209.47
2023-02-22T11:38:23.074Z,101201.66
2023-02-22T11:41:16.375Z,101194.66
2023-02-22T11:43:47.447Z,101188.56
2023-02-22T11:46:29.266Z,101188.66
2023-02-22T11:49:12.039Z,101176.41
2023-02-22T11:51:54.990Z,101178.25
2023-02-22T11:54:31.588Z,101181.81
2023-02-22T11:57:11.138Z,101176.53
2023-02-22T11:59:41.832Z,101171.38
2023-02-22T12:02:23.836Z,101170.53
2023-02-22T12:05:29.764Z,101160.09
2023-02-22T12:08:19.200Z,101153.13
2023-02-22T12:11:06.465Z,101157.56
2023-02-22T12:13:58.947Z,101148.88
2023-02-22T12:16:32.507Z,101155.91
2023-02-22T12:19:22.234Z,101137.44
2023-02-22T12:21:58.219Z,101149.69
2023-02-22T12:24:34.628Z,101155.75
2023-02-22T12:27:12.173Z,101143.47
2023-02-22T12:29:44.721Z,101143.44
2023-02-22T12:32:21.147Z,101136.41
2023-02-22T12:35:14.361Z,101132.88
2023-02-22T12:38:01.912Z,101131.97
2023-02-22T12:41:01.581Z,101123.13
2023-02-22T12:43:51.959Z,101129.25
2023-02-22T12:46:53.469Z,101129.16
2023-02-22T12:49:42.558Z,101133.50
2023-02-22T12:52:32.082Z,101117.69
2023-02-22T12:55:07.295Z,101119.41
2023-02-22T12:58:07.850Z,101130.78
2023-02-22T13:00:54.137Z,101131.66
2023-02-22T13:03:36.288Z,101136.94
2023-02-22T13:06:40.765Z,101127.25
2023-02-22T13:09:14.340Z,101136.91
2023-02-22T13:12:14.003Z,101129.88
2023-02-22T13:14:56.826Z,101122.03
2023-02-22T13:17:46.099Z,101133.50
2023-02-22T13:20:41.314Z,101147.59
2023-02-22T13:23:17.484Z,101157.19
2023-02-22T13:26:19.716Z,101158.91
2023-02-22T13:29:10.089Z,101153.63
2023-02-22T13:31:49.860Z,101158.00
2023-02-22T13:34:33.406Z,101150.09
2023-02-22T13:37:25.554Z,101133.44
2023-02-22T13:40:14.653Z,101150.09
2023-02-22T13:43:06.514Z,101142.19
2023-02-22T13:45:55.253Z,101134.22
2023-02-22T13:48:41.807Z,101139.50
2023-02-22T13:51:23.601Z,101138.53
2023-02-22T13:54:07.992Z,101135.84
2023-02-22T13:56:35.453Z,101136.66
2023-02-22T13:59:04.829Z,101126.16
2023-02-22T14:01:45.866Z,101120.06
2023-02-22T14:04:40.603Z,101124.44
2023-02-22T14:07:24.103Z,101113.03
2023-02-22T14:09:52.666Z,101116.56
2023-02-22T14:12:29.305Z,101107.81
2023-02-22T14:15:28.656Z,101099.97
2023-02-22T14:17:57.460Z,101097.34
2023-02-22T14:20:32.632Z,101084.22
2023-02-22T14:23:49.420Z,101093.03
2023-02-22T14:26:32.310Z,101096.59
2023-02-22T14:29:02.934Z,101104.56
2023-02-22T14:32:13.183Z,101095.84
2023-02-22T14:34:45.385Z,101094.09
2023-02-22T14:37:12.747Z,101094.97
2023-02-22T14:39:45.957Z,101102.03
2023-02-22T14:42:23.252Z,101095.88
2023-02-22T14:45:17.287Z,101098.44
2023-02-22T14:48:13.850Z,101099.31
2023-02-22T14:50:41.256Z,101101.94
2023-02-22T14:53:11.565Z,101107.19
2023-02-22T14:55:53.443Z,101108.91
2023-02-22T14:58:25.919Z,101109.75
2023-02-22T15:00:56.805Z,101115.84
2023-02-22T15:03:38.782Z,101121.06
2023-02-22T15:06:15.259Z,101115.78
2023-02-22T15:08:48.957Z,101111.34
2023-02-22T15:11:21.463Z,101110.47
2023-02-22T15:13:55.045Z,101114.81
2023-02-22T15:16:25.219Z,101106.84
2023-02-22T15:18:54.875Z,101104.16
2023-02-22T15:21:26.178Z,101097.09
2023-02-22T15:24:03.353Z,101104.94
2023-02-22T15:26:49.067Z,101108.41
2023-02-22T15:29:26.074Z,101107.47
2023-02-22T15:31:56.479Z,101105.66
2023-02-22T15:34:33.203Z,101110.03
2023-02-22T15:37:20.251Z,101115.25
2023-02-22T15:39:47.639Z,101111.69
2023-02-22T15:42:21.748Z,101105.50
2023-02-22T15:44:54.857Z,101108.09
2023-02-22T15:47:29.545Z,101108.06
2023-02-22T15:50:33.337Z,101115.03
2023-02-22T15:53:05.050Z,101115.88
2023-02-22T15:55:36.805Z,101110.56
2023-02-22T15:58:12.526Z,101110.56
2023-02-22T16:00:43.121Z,101111.50
2023-02-22T16:03:16.948Z,101109.69
2023-02-22T16:05:48.041Z,101104.47
2023-02-22T16:08:26.838Z,101100.09
2023-02-22T16:11:15.146Z,101103.59
2023-02-22T16:14:42.752Z,101107.97
2023-02-22T16:17:28.977Z,101112.31
2023-02-22T16:20:00.906Z,101114.91
2023-02-22T16:22:34.906Z,101124.50
2023-02-22T16:25:21.671Z,101112.19
2023-02-22T16:27:50.842Z,101115.66
2023-02-22T16:30:24.420Z,101120.00
2023-02-22T16:32:55.041Z,101121.72
2023-02-22T16:35:29.504Z,101125.19
2023-02-22T16:38:02.892Z,101115.47
2023-02-22T16:40:44.913Z,101119.81
2023-02-22T16:43:15.127Z,101119.75
2023-02-22T16:45:43.026Z,101117.97
2023-02-22T16:48:24.027Z,101124.94
2023-02-22T16:50:54.953Z,101124.91
2023-02-22T16:53:25.227Z,101125.81
2023-02-22T16:55:58.023Z,101125.75
2023-02-22T16:58:28.164Z,101121.38
2023-02-22T17:00:57.759Z,101127.50
2023-02-22T17:03:26.135Z,101141.41
2023-02-22T17:05:53.888Z,101128.28
2023-02-22T17:08:21.389Z,101132.63
2023-02-22T17:10:51.637Z,101134.41
2023-02-22T17:13:25.718Z,101130.00
2023-02-22T17:15:59.337Z,101137.88
2023-02-22T17:18:34.727Z,101141.34
2023-02-22T17:21:03.642Z,101141.31
2023-02-22T17:23:31.083Z,101142.22
2023-02-22T17:26:02.292Z,101146.53
2023-02-22T17:28:30.715Z,101145.59
2023-02-22T17:31:01.457Z,101144.69
2023-02-22T17:33:32.968Z,101142.94
2023-02-22T17:36:02.080Z,101142.03
2023-02-22T17:38:30.564Z,101145.47
2023-02-22T17:40:59.449Z,101149.81
2023-02-22T17:43:30.691Z,101145.41
2023-02-22T17:45:58.019Z,101153.25
2023-02-22T17:48:26.048Z,101151.47
2023-02-22T17:50:53.852Z,101150.56
2023-02-22T17:53:21.819Z,101154.91
2023-02-22T17:55:49.902Z,101147.91
2023-02-22T17:58:17.886Z,101156.63
2023-02-22T18:00:49.450Z,101160.09
2023-02-22T18:03:25.494Z,101153.03
2023-02-22T18:05:57.836Z,101149.53
2023-02-22T18:08:27.361Z,101159.16
2023-02-22T18:10:56.796Z,101157.38
2023-02-22T18:13:26.614Z,101161.75
2023-02-22T18:16:03.435Z,101155.63
2023-02-22T18:18:31.462Z,101160.88
2023-02-22T18:21:01.855Z,101161.75
2023-02-22T18:23:31.282Z,101172.25
2023-02-22T18:26:10.770Z,101176.63
2023-02-22T18:28:39.703Z,101174.84
2023-02-22T18:31:15.772Z,101173.97
2023-02-22T18:33:44.979Z,101180.97
2023-02-22T18:36:13.327Z,101181.81
2023-02-22T18:38:45.130Z,101176.56
2023-02-22T18:41:15.633Z,101177.44
2023-02-22T18:43:43.666Z,101178.31
2023-02-22T18:46:14.448Z,101177.44
2023-02-22T18:48:42.329Z,101173.03
2023-02-22T18:51:12.770Z,101176.53
2023-02-22T18:53:41.396Z,101176.53
2023-02-22T18:56:12.077Z,101174.75
2023-02-22T18:58:39.530Z,101179.91
2023-02-22T19:01:07.820Z,101175.50
2023-02-22T19:03:38.702Z,101185.13
2023-02-22T19:06:11.464Z,101171.97
2023-02-22T19:08:42.744Z,101177.22
2023-02-22T19:11:17.735Z,101171.09
2023-02-22T19:13:46.930Z,101178.97
2023-02-22T19:16:20.310Z,101171.94
2023-02-22T19:18:54.835Z,101167.56
2023-02-22T19:21:22.876Z,101166.66
2023-02-22T19:23:50.900Z,101166.66
2023-02-22T19:26:24.250Z,101165.78
2023-02-22T19:28:54.206Z,101164.91
2023-02-22T19:31:31.822Z,101157.03
2023-02-22T19:34:01.946Z,101172.78
2023-02-22T19:36:30.214Z,101174.53
2023-02-22T19:39:02.137Z,101169.28
2023-02-22T19:41:30.122Z,101171.84
2023-02-22T19:43:57.826Z,101173.56
2023-02-22T19:46:26.438Z,101172.66
2023-02-22T19:48:57.578Z,101164.78
2023-02-22T19:51:35.061Z,101166.53
2023-02-22T19:54:04.916Z,101169.16
2023-02-22T19:56:35.240Z,101170.03
2023-02-22T19:59:13.485Z,101168.31
2023-02-22T20:01:44.318Z,101166.50
2023-02-22T20:04:23.402Z,101159.53
2023-02-22T20:06:54.810Z,101167.41
2023-02-22T20:09:29.788Z,101169.16
2023-02-22T20:11:57.704Z,101169.13
2023-02-22T20:14:28.995Z,101173.50
2023-02-22T20:16:58.132Z,101167.38
2023-02-22T20:19:26.882Z,101168.25
2023-02-22T20:21:56.307Z,101169.16
2023-02-22T20:24:24.998Z,101176.19
2023-02-22T20:26:55.997Z,101163.91
2023-02-22T20:29:29.946Z,101171.81
2023-02-22T20:31:59.455Z,101172.66
2023-02-22T20:34:31.317Z,101170.91
2023-02-22T20:36:59.301Z,101165.63
2023-02-22T20:39:28.351Z,101171.72
2023-02-22T20:41:56.285Z,101165.56
2023-02-22T20:44:23.537Z,101176.91
2023-02-22T20:46:51.137Z,101176.03
2023-02-22T20:49:19.912Z,101183.03
2023-02-22T20:51:48.377Z,101179.53
2023-02-22T20:54:17.753Z,101172.56
2023-02-22T20:56:53.137Z,101178.66
2023-02-22T20:59:21.494Z,101181.28
2023-02-22T21:01:51.395Z,101176.03
2023-02-22T21:04:19.160Z,101178.66
2023-02-22T21:06:47.256Z,101172.50
2023-02-22T21:09:17.753Z,101177.72
2023-02-22T21:11:46.484Z,101177.72
2023-02-22T21:14:18.872Z,101174.19
2023-02-22T21:16:49.274Z,101179.44
2023-02-22T21:19:26.866Z,101170.66
2023-02-22T21:22:01.631Z,101174.16
2023-02-22T21:24:29.904Z,101176.72
2023-02-22T21:26:59.046Z,101168.88
2023-02-22T21:29:28.626Z,101175.81
2023-02-22T21:31:57.069Z,101173.19
2023-02-22T21:34:26.125Z,101175.78
2023-02-22T21:36:54.501Z,101168.69
2023-02-22T21:39:22.985Z,101172.16
2023-02-22T21:41:52.137Z,101173.88
2023-02-22T21:44:19.979Z,101169.50
2023-02-22T21:46:50.690Z,101176.41
2023-02-22T21:49:18.501Z,101178.91
2023-02-22T21:51:45.918Z,101178.88
2023-02-22T21:54:13.883Z,101179.69
2023-02-22T21:56:43.280Z,101184.00
2023-02-22T21:59:19.048Z,101187.47
2023-02-22T22:02:04.675Z,101189.16
2023-02-22T22:04:32.857Z,101189.97
2023-02-22T22:07:01.958Z,101189.03
2023-02-22T22:09:33.363Z,101181.13
2023-02-22T22:12:05.265Z,101184.53
2023-02-22T22:14:34.557Z,101181.88
2023-02-22T22:17:05.733Z,101181.78
2023-02-22T22:19:40.643Z,101177.34
2023-02-22T22:22:08.819Z,101186.88
2023-02-22T22:24:36.757Z,101185.94
2023-02-22T22:27:10.101Z,101185.88
2023-02-22T22:29:37.448Z,101191.06
2023-02-22T22:32:06.169Z,101191.94
2023-02-22T22:34:34.554Z,101191.84
2023-02-22T22:37:01.873Z,101196.16
2023-02-22T22:39:29.715Z,101191.72
2023-02-22T22:41:57.180Z,101194.25
2023-02-22T22:44:24.605Z,101190.72
2023-02-22T22:46:55.012Z,101187.13
2023-02-22T22:49:25.386Z,101195.84
2023-02-22T22:51:53.666Z,101199.31
2023-02-22T22:54:21.013Z,101204.53
2023-02-22T22:56:48.788Z,101199.28
2023-02-22T22:59:16.216Z,101209.72
2023-02-22T23:01:46.679Z,101208.84
2023-02-22T23:04:16.658Z,101206.19
2023-02-22T23:06:52.530Z,101206.97
2023-02-22T23:09:22.248Z,101216.53
2023-02-22T23:11:53.651Z,101212.19
2023-02-22T23:14:26.862Z,101219.97
2023-02-22T23:17:03.269Z,101231.31
2023-02-22T23:19:35.846Z,101230.41
2023-02-22T23:22:05.535Z,101233.03
2023-02-22T23:24:37.858Z,101220.78
2023-02-22T23:27:07.628Z,101232.13
2023-02-22T23:29:41.909Z,101226.03
2023-02-22T23:32:09.603Z,101224.25
2023-02-22T23:34:41.403Z,101232.06
2023-02-22T23:37:10.724Z,101234.72
2023-02-22T23:39:38.770Z,101231.13
2023-02-22T23:42:08.881Z,101235.41
2023-02-22T23:44:36.564Z,101238.88
2023-02-22T23:47:05.468Z,101241.50
2023-02-22T23:49:38.157Z,101244.94
2023-02-22T23:52:07.255Z,101245.81
2023-02-22T23:54:40.292Z,101245.81
2023-02-22T23:57:08.931Z,101243.19
2023-02-22T23:59:40.497Z,101247.56
